sensor_id;sensor_type;location;lat;lon;timestamp;P1;durP1;ratioP1;P2;durP2;ratioP2
55655;SDS011;41530;52.382;5.270;2022-09-20T00:01:23;7.38;;;0.80;;
55655;SDS011;41530;52.382;5.270;2022-09-20T00:04:02;2.28;;;0.55;;
55655;SDS011;41530;52.382;5.270;2022-09-20T00:06:31;1.58;;;0.70;;
55655;SDS011;41530;52.382;5.270;2022-09-20T00:08:58;1.35;;;0.52;;
55655;SDS011;41530;52.382;5.270;2022-09-20T00:11:27;2.17;;;0.70;;
55655;SDS011;41530;52.382;5.270;2022-09-20T00:13:55;3.50;;;0.50;;
55655;SDS011;41530;52.382;5.270;2022-09-20T00:16:28;1.75;;;0.50;;
55655;SDS011;41530;52.382;5.270;2022-09-20T00:18:58;2.33;;;0.68;;
55655;SDS011;41530;52.382;5.270;2022-09-20T00:21:27;2.00;;;0.57;;
55655;SDS011;41530;52.382;5.270;2022-09-20T00:23:55;1.45;;;0.70;;
55655;SDS011;41530;52.382;5.270;2022-09-20T00:26:25;3.25;;;0.70;;
55655;SDS011;41530;52.382;5.270;2022-09-20T00:28:53;1.67;;;0.60;;
55655;SDS011;41530;52.382;5.270;2022-09-20T00:31:20;2.17;;;0.57;;
55655;SDS011;41530;52.382;5.270;2022-09-20T00:33:46;2.75;;;0.40;;
55655;SDS011;41530;52.382;5.270;2022-09-20T00:36:32;2.08;;;0.60;;
55655;SDS011;41530;52.382;5.270;2022-09-20T00:38:59;1.83;;;0.70;;
55655;SDS011;41530;52.382;5.270;2022-09-20T00:41:27;2.17;;;0.40;;
55655;SDS011;41530;52.382;5.270;2022-09-20T00:43:55;3.20;;;0.60;;
55655;SDS011;41530;52.382;5.270;2022-09-20T00:48:54;1.27;;;0.43;;
55655;SDS011;41530;52.382;5.270;2022-09-20T00:51:32;4.13;;;0.77;;
55655;SDS011;41530;52.382;5.270;2022-09-20T00:54:03;3.58;;;0.80;;
55655;SDS011;41530;52.382;5.270;2022-09-20T00:56:32;5.10;;;0.88;;
55655;SDS011;41530;52.382;5.270;2022-09-20T01:02:07;3.03;;;0.60;;
55655;SDS011;41530;52.382;5.270;2022-09-20T01:04:39;1.83;;;0.45;;
55655;SDS011;41530;52.382;5.270;2022-09-20T01:07:08;2.50;;;0.80;;
55655;SDS011;41530;52.382;5.270;2022-09-20T01:09:38;2.28;;;0.60;;
55655;SDS011;41530;52.382;5.270;2022-09-20T01:12:05;3.30;;;0.70;;
55655;SDS011;41530;52.382;5.270;2022-09-20T01:14:38;1.23;;;0.50;;
55655;SDS011;41530;52.382;5.270;2022-09-20T01:17:07;3.65;;;0.73;;
55655;SDS011;41530;52.382;5.270;2022-09-20T01:28:13;2.17;;;0.63;;
55655;SDS011;41530;52.382;5.270;2022-09-20T01:30:45;2.25;;;0.55;;
55655;SDS011;41530;52.382;5.270;2022-09-20T01:35:58;2.25;;;0.50;;
55655;SDS011;41530;52.382;5.270;2022-09-20T01:41:23;2.55;;;0.70;;
55655;SDS011;41530;52.382;5.270;2022-09-20T01:46:38;2.85;;;0.60;;
55655;SDS011;41530;52.382;5.270;2022-09-20T01:49:14;2.10;;;0.40;;
55655;SDS011;41530;52.382;5.270;2022-09-20T01:54:53;2.85;;;0.47;;
55655;SDS011;41530;52.382;5.270;2022-09-20T02:00:27;2.28;;;0.50;;
55655;SDS011;41530;52.382;5.270;2022-09-20T02:03:29;1.15;;;0.40;;
55655;SDS011;41530;52.382;5.270;2022-09-20T02:29:39;1.48;;;0.43;;
55655;SDS011;41530;52.382;5.270;2022-09-20T02:47:30;0.90;;;0.40;;
55655;SDS011;41530;52.382;5.270;2022-09-20T02:49:57;4.53;;;0.70;;
55655;SDS011;41530;52.382;5.270;2022-09-20T02:55:18;2.45;;;0.50;;
55655;SDS011;41530;52.382;5.270;2022-09-20T03:20:57;3.42;;;0.55;;
55655;SDS011;41530;52.382;5.270;2022-09-20T03:29:19;2.38;;;0.40;;
55655;SDS011;41530;52.382;5.270;2022-09-20T03:35:06;1.45;;;0.50;;
55655;SDS011;41530;52.382;5.270;2022-09-20T03:43:18;2.15;;;0.52;;
55655;SDS011;41530;52.382;5.270;2022-09-20T03:46:02;0.98;;;0.52;;
55655;SDS011;41530;52.382;5.270;2022-09-20T03:48:57;6.72;;;0.50;;
55655;SDS011;41530;52.382;5.270;2022-09-20T03:54:43;1.80;;;0.40;;
55655;SDS011;41530;52.382;5.270;2022-09-20T04:04:59;1.15;;;0.50;;
55655;SDS011;41530;52.382;5.270;2022-09-20T04:10:23;1.60;;;0.50;;
55655;SDS011;41530;52.382;5.270;2022-09-20T04:13:06;2.10;;;0.50;;
55655;SDS011;41530;52.382;5.270;2022-09-20T04:15:45;1.27;;;0.40;;
55655;SDS011;41530;52.382;5.270;2022-09-20T04:18:19;2.40;;;0.63;;
55655;SDS011;41530;52.382;5.270;2022-09-20T04:21:18;1.00;;;0.50;;
55655;SDS011;41530;52.382;5.270;2022-09-20T04:26:17;1.95;;;0.40;;
55655;SDS011;41530;52.382;5.270;2022-09-20T04:29:09;1.13;;;0.40;;
55655;SDS011;41530;52.382;5.270;2022-09-20T04:31:58;1.60;;;0.50;;
55655;SDS011;41530;52.382;5.270;2022-09-20T04:34:37;0.95;;;0.40;;
55655;SDS011;41530;52.382;5.270;2022-09-20T04:37:33;2.35;;;0.47;;
55655;SDS011;41530;52.382;5.270;2022-09-20T05:00:20;3.38;;;0.60;;
55655;SDS011;41530;52.382;5.270;2022-09-20T05:21:06;4.25;;;0.70;;
55655;SDS011;41530;52.382;5.270;2022-09-20T05:23:58;1.67;;;0.47;;
55655;SDS011;41530;52.382;5.270;2022-09-20T05:27:04;2.70;;;0.60;;
55655;SDS011;41530;52.382;5.270;2022-09-20T05:32:21;1.58;;;0.50;;
55655;SDS011;41530;52.382;5.270;2022-09-20T05:43:35;0.98;;;0.50;;
55655;SDS011;41530;52.382;5.270;2022-09-20T05:46:14;5.97;;;1.35;;
55655;SDS011;41530;52.382;5.270;2022-09-20T05:48:55;6.97;;;1.38;;
55655;SDS011;41530;52.382;5.270;2022-09-20T06:02:33;11.57;;;2.00;;
55655;SDS011;41530;52.382;5.270;2022-09-20T06:17:14;5.50;;;1.73;;
55655;SDS011;41530;52.382;5.270;2022-09-20T06:22:49;5.70;;;1.58;;
55655;SDS011;41530;52.382;5.270;2022-09-20T06:25:24;3.85;;;1.30;;
55655;SDS011;41530;52.382;5.270;2022-09-20T06:27:55;6.25;;;1.50;;
55655;SDS011;41530;52.382;5.270;2022-09-20T06:30:36;3.85;;;1.38;;
55655;SDS011;41530;52.382;5.270;2022-09-20T06:35:36;2.63;;;1.05;;
55655;SDS011;41530;52.382;5.270;2022-09-20T06:41:23;2.78;;;1.00;;
55655;SDS011;41530;52.382;5.270;2022-09-20T06:43:55;4.15;;;0.93;;
55655;SDS011;41530;52.382;5.270;2022-09-20T06:46:34;3.10;;;1.20;;
55655;SDS011;41530;52.382;5.270;2022-09-20T06:49:02;7.50;;;1.13;;
55655;SDS011;41530;52.382;5.270;2022-09-20T06:51:32;5.38;;;1.05;;
55655;SDS011;41530;52.382;5.270;2022-09-20T06:54:00;3.42;;;0.80;;
55655;SDS011;41530;52.382;5.270;2022-09-20T06:56:28;3.03;;;0.90;;
55655;SDS011;41530;52.382;5.270;2022-09-20T06:58:59;4.45;;;0.90;;
55655;SDS011;41530;52.382;5.270;2022-09-20T07:01:26;2.38;;;0.90;;
55655;SDS011;41530;52.382;5.270;2022-09-20T07:03:56;7.72;;;0.82;;
55655;SDS011;41530;52.382;5.270;2022-09-20T07:06:23;8.57;;;1.08;;
55655;SDS011;41530;52.382;5.270;2022-09-20T07:08:50;5.63;;;1.02;;
55655;SDS011;41530;52.382;5.270;2022-09-20T07:11:16;8.50;;;1.30;;
55655;SDS011;41530;52.382;5.270;2022-09-20T07:13:43;6.43;;;1.02;;
55655;SDS011;41530;52.382;5.270;2022-09-20T07:16:11;8.98;;;1.45;;
55655;SDS011;41530;52.382;5.270;2022-09-20T07:18:39;6.97;;;1.15;;
55655;SDS011;41530;52.382;5.270;2022-09-20T07:21:13;7.82;;;0.88;;
55655;SDS011;41530;52.382;5.270;2022-09-20T07:23:41;5.50;;;0.90;;
55655;SDS011;41530;52.382;5.270;2022-09-20T07:26:24;7.05;;;1.00;;
55655;SDS011;41530;52.382;5.270;2022-09-20T07:28:56;4.45;;;0.80;;
55655;SDS011;41530;52.382;5.270;2022-09-20T07:31:28;4.55;;;0.65;;
55655;SDS011;41530;52.382;5.270;2022-09-20T07:33:55;6.45;;;0.80;;
55655;SDS011;41530;52.382;5.270;2022-09-20T07:36:22;8.00;;;0.90;;
55655;SDS011;41530;52.382;5.270;2022-09-20T07:38:50;2.20;;;1.00;;
55655;SDS011;41530;52.382;5.270;2022-09-20T07:41:19;5.25;;;0.80;;
55655;SDS011;41530;52.382;5.270;2022-09-20T07:43:48;2.33;;;0.65;;
55655;SDS011;41530;52.382;5.270;2022-09-20T07:46:48;2.95;;;0.75;;
55655;SDS011;41530;52.382;5.270;2022-09-20T07:49:19;1.35;;;0.52;;
55655;SDS011;41530;52.382;5.270;2022-09-20T07:51:49;3.80;;;0.80;;
55655;SDS011;41530;52.382;5.270;2022-09-20T07:54:16;2.58;;;0.70;;
55655;SDS011;41530;52.382;5.270;2022-09-20T07:56:43;3.95;;;0.80;;
55655;SDS011;41530;52.382;5.270;2022-09-20T07:59:11;4.22;;;0.82;;
55655;SDS011;41530;52.382;5.270;2022-09-20T08:01:39;3.30;;;0.73;;
55655;SDS011;41530;52.382;5.270;2022-09-20T08:04:07;2.10;;;0.70;;
55655;SDS011;41530;52.382;5.270;2022-09-20T08:06:35;2.25;;;0.60;;
55655;SDS011;41530;52.382;5.270;2022-09-20T08:09:04;3.92;;;0.60;;
55655;SDS011;41530;52.382;5.270;2022-09-20T08:11:36;2.08;;;0.60;;
55655;SDS011;41530;52.382;5.270;2022-09-20T08:14:04;1.65;;;0.60;;
55655;SDS011;41530;52.382;5.270;2022-09-20T08:16:37;1.42;;;0.50;;
55655;SDS011;41530;52.382;5.270;2022-09-20T08:19:05;1.52;;;0.50;;
55655;SDS011;41530;52.382;5.270;2022-09-20T08:21:33;1.40;;;0.38;;
55655;SDS011;41530;52.382;5.270;2022-09-20T08:24:03;1.88;;;0.40;;
55655;SDS011;41530;52.382;5.270;2022-09-20T08:26:29;4.00;;;0.60;;
55655;SDS011;41530;52.382;5.270;2022-09-20T08:28:57;2.33;;;0.60;;
55655;SDS011;41530;52.382;5.270;2022-09-20T08:31:25;1.50;;;0.50;;
55655;SDS011;41530;52.382;5.270;2022-09-20T08:33:56;1.35;;;0.52;;
55655;SDS011;41530;52.382;5.270;2022-09-20T08:36:24;2.90;;;1.10;;
55655;SDS011;41530;52.382;5.270;2022-09-20T08:38:51;1.73;;;0.50;;
55655;SDS011;41530;52.382;5.270;2022-09-20T08:41:43;1.17;;;0.63;;
55655;SDS011;41530;52.382;5.270;2022-09-20T08:47:02;1.98;;;0.52;;
55655;SDS011;41530;52.382;5.270;2022-09-20T08:49:30;1.02;;;0.50;;
55655;SDS011;41530;52.382;5.270;2022-09-20T08:51:58;0.57;;;0.30;;
55655;SDS011;41530;52.382;5.270;2022-09-20T08:54:29;1.10;;;0.50;;
55655;SDS011;41530;52.382;5.270;2022-09-20T08:57:02;2.45;;;0.60;;
55655;SDS011;41530;52.382;5.270;2022-09-20T08:59:36;2.28;;;0.80;;
55655;SDS011;41530;52.382;5.270;2022-09-20T09:02:02;4.93;;;0.45;;
55655;SDS011;41530;52.382;5.270;2022-09-20T09:07:04;1.85;;;0.55;;
55655;SDS011;41530;52.382;5.270;2022-09-20T09:09:31;1.55;;;0.43;;
55655;SDS011;41530;52.382;5.270;2022-09-20T09:12:03;2.47;;;0.70;;
55655;SDS011;41530;52.382;5.270;2022-09-20T09:14:31;1.17;;;0.43;;
55655;SDS011;41530;52.382;5.270;2022-09-20T09:17:16;2.90;;;0.40;;
55655;SDS011;41530;52.382;5.270;2022-09-20T09:19:45;3.70;;;0.60;;
55655;SDS011;41530;52.382;5.270;2022-09-20T09:22:17;1.52;;;0.50;;
55655;SDS011;41530;52.382;5.270;2022-09-20T09:30:26;0.95;;;0.30;;
55655;SDS011;41530;52.382;5.270;2022-09-20T09:35:57;1.15;;;0.30;;
55655;SDS011;41530;52.382;5.270;2022-09-20T09:38:31;1.75;;;0.60;;
55655;SDS011;41530;52.382;5.270;2022-09-20T09:41:04;1.85;;;0.47;;
55655;SDS011;41530;52.382;5.270;2022-09-20T09:43:42;1.70;;;0.40;;
55655;SDS011;41530;52.382;5.270;2022-09-20T09:46:31;1.80;;;0.40;;
55655;SDS011;41530;52.382;5.270;2022-09-20T09:49:16;8.57;;;0.82;;
55655;SDS011;41530;52.382;5.270;2022-09-20T09:54:42;3.40;;;0.47;;
55655;SDS011;41530;52.382;5.270;2022-09-20T10:05:34;2.40;;;0.50;;
55655;SDS011;41530;52.382;5.270;2022-09-20T10:08:27;1.42;;;0.50;;
55655;SDS011;41530;52.382;5.270;2022-09-20T10:13:44;1.63;;;0.38;;
55655;SDS011;41530;52.382;5.270;2022-09-20T10:16:29;2.00;;;0.35;;
55655;SDS011;41530;52.382;5.270;2022-09-20T10:19:13;2.28;;;0.57;;
55655;SDS011;41530;52.382;5.270;2022-09-20T10:21:51;2.55;;;0.43;;
55655;SDS011;41530;52.382;5.270;2022-09-20T10:24:48;2.90;;;0.40;;
55655;SDS011;41530;52.382;5.270;2022-09-20T10:33:34;2.78;;;0.45;;
55655;SDS011;41530;52.382;5.270;2022-09-20T10:36:18;3.00;;;0.60;;
55655;SDS011;41530;52.382;5.270;2022-09-20T10:39:02;2.63;;;0.30;;
55655;SDS011;41530;52.382;5.270;2022-09-20T10:41:45;0.50;;;0.40;;
55655;SDS011;41530;52.382;5.270;2022-09-20T10:44:43;2.42;;;0.40;;
55655;SDS011;41530;52.382;5.270;2022-09-20T10:47:13;1.08;;;0.30;;
55655;SDS011;41530;52.382;5.270;2022-09-20T10:55:17;1.45;;;0.40;;
55655;SDS011;41530;52.382;5.270;2022-09-20T11:09:02;2.13;;;0.50;;
55655;SDS011;41530;52.382;5.270;2022-09-20T11:11:41;3.70;;;0.50;;
55655;SDS011;41530;52.382;5.270;2022-09-20T11:14:19;2.60;;;0.60;;
55655;SDS011;41530;52.382;5.270;2022-09-20T11:16:55;3.13;;;0.47;;
55655;SDS011;41530;52.382;5.270;2022-09-20T11:22:37;2.60;;;0.30;;
55655;SDS011;41530;52.382;5.270;2022-09-20T11:25:17;3.20;;;0.65;;
55655;SDS011;41530;52.382;5.270;2022-09-20T11:28:00;2.67;;;0.50;;
55655;SDS011;41530;52.382;5.270;2022-09-20T11:30:32;1.75;;;0.60;;
55655;SDS011;41530;52.382;5.270;2022-09-20T11:35:45;1.38;;;0.25;;
55655;SDS011;41530;52.382;5.270;2022-09-20T11:38:25;0.38;;;0.17;;
55655;SDS011;41530;52.382;5.270;2022-09-20T11:43:41;3.38;;;0.45;;
55655;SDS011;41530;52.382;5.270;2022-09-20T11:46:10;1.85;;;0.52;;
55655;SDS011;41530;52.382;5.270;2022-09-20T11:48:44;1.80;;;0.50;;
55655;SDS011;41530;52.382;5.270;2022-09-20T11:54:04;2.80;;;0.40;;
55655;SDS011;41530;52.382;5.270;2022-09-20T11:56:53;2.63;;;0.50;;
55655;SDS011;41530;52.382;5.270;2022-09-20T11:59:32;2.40;;;0.60;;
55655;SDS011;41530;52.382;5.270;2022-09-20T12:02:03;1.02;;;0.40;;
55655;SDS011;41530;52.382;5.270;2022-09-20T12:04:42;0.98;;;0.40;;
55655;SDS011;41530;52.382;5.270;2022-09-20T12:14:56;1.42;;;0.43;;
55655;SDS011;41530;52.382;5.270;2022-09-20T12:21:12;2.10;;;0.40;;
55655;SDS011;41530;52.382;5.270;2022-09-20T12:28:50;2.25;;;0.50;;
55655;SDS011;41530;52.382;5.270;2022-09-20T12:36:31;2.13;;;0.65;;
55655;SDS011;41530;52.382;5.270;2022-09-20T12:52:37;2.00;;;0.50;;
55655;SDS011;41530;52.382;5.270;2022-09-20T12:55:34;2.70;;;0.50;;
55655;SDS011;41530;52.382;5.270;2022-09-20T13:08:42;1.42;;;0.52;;
55655;SDS011;41530;52.382;5.270;2022-09-20T13:11:16;0.43;;;0.30;;
55655;SDS011;41530;52.382;5.270;2022-09-20T13:16:17;1.77;;;0.50;;
55655;SDS011;41530;52.382;5.270;2022-09-20T13:18:51;1.45;;;0.47;;
55655;SDS011;41530;52.382;5.270;2022-09-20T13:21:32;1.27;;;0.50;;
55655;SDS011;41530;52.382;5.270;2022-09-20T13:24:02;4.38;;;0.60;;
55655;SDS011;41530;52.382;5.270;2022-09-20T13:26:34;1.70;;;0.45;;
55655;SDS011;41530;52.382;5.270;2022-09-20T13:29:06;0.98;;;0.40;;
55655;SDS011;41530;52.382;5.270;2022-09-20T13:31:35;0.63;;;0.32;;
55655;SDS011;41530;52.382;5.270;2022-09-20T13:34:11;2.40;;;0.52;;
55655;SDS011;41530;52.382;5.270;2022-09-20T13:36:52;0.77;;;0.40;;
55655;SDS011;41530;52.382;5.270;2022-09-20T13:39:33;4.32;;;0.40;;
55655;SDS011;41530;52.382;5.270;2022-09-20T13:42:10;2.35;;;0.50;;
55655;SDS011;41530;52.382;5.270;2022-09-20T13:44:44;1.48;;;0.40;;
55655;SDS011;41530;52.382;5.270;2022-09-20T13:49:58;0.95;;;0.30;;
55655;SDS011;41530;52.382;5.270;2022-09-20T13:52:25;1.95;;;0.30;;
55655;SDS011;41530;52.382;5.270;2022-09-20T13:54:54;1.48;;;0.40;;
55655;SDS011;41530;52.382;5.270;2022-09-20T13:57:22;1.88;;;0.43;;
55655;SDS011;41530;52.382;5.270;2022-09-20T13:59:52;2.60;;;0.43;;
55655;SDS011;41530;52.382;5.270;2022-09-20T14:02:27;0.45;;;0.20;;
55655;SDS011;41530;52.382;5.270;2022-09-20T14:04:58;1.98;;;0.47;;
55655;SDS011;41530;52.382;5.270;2022-09-20T14:07:26;2.03;;;0.50;;
55655;SDS011;41530;52.382;5.270;2022-09-20T14:09:55;2.53;;;0.50;;
55655;SDS011;41530;52.382;5.270;2022-09-20T14:12:23;1.50;;;0.50;;
55655;SDS011;41530;52.382;5.270;2022-09-20T14:14:51;1.42;;;0.40;;
55655;SDS011;41530;52.382;5.270;2022-09-20T14:17:20;0.43;;;0.25;;
55655;SDS011;41530;52.382;5.270;2022-09-20T14:19:50;1.55;;;0.40;;
55655;SDS011;41530;52.382;5.270;2022-09-20T14:22:23;1.92;;;0.43;;
55655;SDS011;41530;52.382;5.270;2022-09-20T14:24:55;0.25;;;0.22;;
55655;SDS011;41530;52.382;5.270;2022-09-20T14:27:37;0.90;;;0.30;;
55655;SDS011;41530;52.382;5.270;2022-09-20T14:30:04;2.92;;;0.47;;
55655;SDS011;41530;52.382;5.270;2022-09-20T14:35:15;2.35;;;0.40;;
55655;SDS011;41530;52.382;5.270;2022-09-20T14:37:45;1.90;;;0.30;;
55655;SDS011;41530;52.382;5.270;2022-09-20T14:42:56;3.42;;;0.40;;
55655;SDS011;41530;52.382;5.270;2022-09-20T14:45:31;1.27;;;0.43;;
55655;SDS011;41530;52.382;5.270;2022-09-20T14:53:25;1.77;;;0.40;;
55655;SDS011;41530;52.382;5.270;2022-09-20T14:58:31;6.70;;;0.50;;
55655;SDS011;41530;52.382;5.270;2022-09-20T15:01:06;0.45;;;0.30;;
55655;SDS011;41530;52.382;5.270;2022-09-20T15:03:48;0.65;;;0.30;;
55655;SDS011;41530;52.382;5.270;2022-09-20T15:06:15;0.85;;;0.30;;
55655;SDS011;41530;52.382;5.270;2022-09-20T15:08:42;2.35;;;0.30;;
55655;SDS011;41530;52.382;5.270;2022-09-20T15:11:16;1.33;;;0.30;;
55655;SDS011;41530;52.382;5.270;2022-09-20T15:13:43;0.85;;;0.30;;
55655;SDS011;41530;52.382;5.270;2022-09-20T15:16:11;1.60;;;0.38;;
55655;SDS011;41530;52.382;5.270;2022-09-20T15:18:40;1.95;;;0.47;;
55655;SDS011;41530;52.382;5.270;2022-09-20T15:21:08;1.23;;;0.40;;
55655;SDS011;41530;52.382;5.270;2022-09-20T15:23:38;1.20;;;0.32;;
55655;SDS011;41530;52.382;5.270;2022-09-20T15:26:05;0.32;;;0.20;;
55655;SDS011;41530;52.382;5.270;2022-09-20T15:28:32;2.08;;;0.40;;
55655;SDS011;41530;52.382;5.270;2022-09-20T15:30:59;0.38;;;0.20;;
55655;SDS011;41530;52.382;5.270;2022-09-20T15:33:28;0.47;;;0.20;;
55655;SDS011;41530;52.382;5.270;2022-09-20T15:35:55;0.50;;;0.43;;
55655;SDS011;41530;52.382;5.270;2022-09-20T15:38:22;1.27;;;0.38;;
55655;SDS011;41530;52.382;5.270;2022-09-20T15:40:52;0.63;;;0.28;;
55655;SDS011;41530;52.382;5.270;2022-09-20T15:43:22;1.30;;;0.30;;
55655;SDS011;41530;52.382;5.270;2022-09-20T15:45:52;2.35;;;0.90;;
55655;SDS011;41530;52.382;5.270;2022-09-20T15:48:24;8.63;;;2.75;;
55655;SDS011;41530;52.382;5.270;2022-09-20T15:50:59;10.10;;;3.75;;
55655;SDS011;41530;52.382;5.270;2022-09-20T15:53:33;12.90;;;4.18;;
55655;SDS011;41530;52.382;5.270;2022-09-20T15:56:02;9.63;;;4.00;;
55655;SDS011;41530;52.382;5.270;2022-09-20T15:58:31;8.40;;;4.07;;
55655;SDS011;41530;52.382;5.270;2022-09-20T16:01:05;8.60;;;3.72;;
55655;SDS011;41530;52.382;5.270;2022-09-20T16:03:33;9.27;;;3.67;;
55655;SDS011;41530;52.382;5.270;2022-09-20T16:06:05;11.80;;;5.05;;
55655;SDS011;41530;52.382;5.270;2022-09-20T16:08:36;9.32;;;3.67;;
55655;SDS011;41530;52.382;5.270;2022-09-20T16:11:05;9.63;;;3.85;;
55655;SDS011;41530;52.382;5.270;2022-09-20T16:13:33;10.45;;;3.83;;
55655;SDS011;41530;52.382;5.270;2022-09-20T16:16:04;15.55;;;4.15;;
55655;SDS011;41530;52.382;5.270;2022-09-20T16:18:32;10.57;;;4.03;;
55655;SDS011;41530;52.382;5.270;2022-09-20T16:21:19;9.30;;;4.00;;
55655;SDS011;41530;52.382;5.270;2022-09-20T16:23:47;11.20;;;3.63;;
55655;SDS011;41530;52.382;5.270;2022-09-20T16:26:15;8.32;;;3.60;;
55655;SDS011;41530;52.382;5.270;2022-09-20T16:28:42;5.85;;;3.38;;
55655;SDS011;41530;52.382;5.270;2022-09-20T16:31:32;10.93;;;3.70;;
55655;SDS011;41530;52.382;5.270;2022-09-20T16:36:38;9.80;;;3.58;;
55655;SDS011;41530;52.382;5.270;2022-09-20T16:39:09;8.70;;;3.45;;
55655;SDS011;41530;52.382;5.270;2022-09-20T16:41:36;6.07;;;2.60;;
55655;SDS011;41530;52.382;5.270;2022-09-20T16:44:03;6.97;;;2.95;;
55655;SDS011;41530;52.382;5.270;2022-09-20T16:46:30;5.55;;;2.50;;
55655;SDS011;41530;52.382;5.270;2022-09-20T16:48:57;9.65;;;3.38;;
55655;SDS011;41530;52.382;5.270;2022-09-20T16:51:30;8.93;;;3.13;;
55655;SDS011;41530;52.382;5.270;2022-09-20T16:54:05;6.25;;;2.88;;
55655;SDS011;41530;52.382;5.270;2022-09-20T16:56:38;6.22;;;2.92;;
55655;SDS011;41530;52.382;5.270;2022-09-20T16:59:06;4.85;;;2.80;;
55655;SDS011;41530;52.382;5.270;2022-09-20T17:01:33;6.45;;;2.55;;
55655;SDS011;41530;52.382;5.270;2022-09-20T17:04:02;6.82;;;2.28;;
55655;SDS011;41530;52.382;5.270;2022-09-20T17:06:34;5.75;;;2.47;;
55655;SDS011;41530;52.382;5.270;2022-09-20T17:09:02;4.95;;;2.15;;
55655;SDS011;41530;52.382;5.270;2022-09-20T17:11:32;4.43;;;1.85;;
55655;SDS011;41530;52.382;5.270;2022-09-20T17:14:00;5.90;;;2.00;;
55655;SDS011;41530;52.382;5.270;2022-09-20T17:16:27;3.25;;;1.92;;
55655;SDS011;41530;52.382;5.270;2022-09-20T17:18:56;3.30;;;1.60;;
55655;SDS011;41530;52.382;5.270;2022-09-20T17:21:25;5.38;;;2.00;;
55655;SDS011;41530;52.382;5.270;2022-09-20T17:23:54;5.80;;;2.00;;
55655;SDS011;41530;52.382;5.270;2022-09-20T17:26:25;4.18;;;1.80;;
55655;SDS011;41530;52.382;5.270;2022-09-20T17:28:56;10.52;;;1.60;;
55655;SDS011;41530;52.382;5.270;2022-09-20T17:31:24;4.00;;;1.63;;
55655;SDS011;41530;52.382;5.270;2022-09-20T17:33:57;4.13;;;1.67;;
55655;SDS011;41530;52.382;5.270;2022-09-20T17:36:28;6.75;;;1.80;;
55655;SDS011;41530;52.382;5.270;2022-09-20T17:38:57;5.78;;;1.65;;
55655;SDS011;41530;52.382;5.270;2022-09-20T17:41:29;3.80;;;1.70;;
55655;SDS011;41530;52.382;5.270;2022-09-20T17:43:57;2.85;;;1.50;;
55655;SDS011;41530;52.382;5.270;2022-09-20T17:46:25;3.67;;;1.48;;
55655;SDS011;41530;52.382;5.270;2022-09-20T17:48:57;3.30;;;1.52;;
55655;SDS011;41530;52.382;5.270;2022-09-20T17:51:26;3.38;;;1.60;;
55655;SDS011;41530;52.382;5.270;2022-09-20T17:53:54;4.50;;;1.40;;
55655;SDS011;41530;52.382;5.270;2022-09-20T17:56:21;3.85;;;1.40;;
55655;SDS011;41530;52.382;5.270;2022-09-20T17:58:49;3.50;;;1.63;;
55655;SDS011;41530;52.382;5.270;2022-09-20T18:01:17;2.97;;;1.38;;
55655;SDS011;41530;52.382;5.270;2022-09-20T18:03:46;3.22;;;1.25;;
55655;SDS011;41530;52.382;5.270;2022-09-20T18:08:40;2.85;;;1.25;;
55655;SDS011;41530;52.382;5.270;2022-09-20T18:11:11;2.40;;;1.02;;
55655;SDS011;41530;52.382;5.270;2022-09-20T18:13:37;1.73;;;0.98;;
55655;SDS011;41530;52.382;5.270;2022-09-20T18:16:07;2.97;;;1.17;;
55655;SDS011;41530;52.382;5.270;2022-09-20T18:18:37;2.70;;;1.02;;
55655;SDS011;41530;52.382;5.270;2022-09-20T18:23:47;2.85;;;1.10;;
55655;SDS011;41530;52.382;5.270;2022-09-20T18:26:16;2.85;;;1.27;;
55655;SDS011;41530;52.382;5.270;2022-09-20T18:29:09;2.40;;;1.20;;
55655;SDS011;41530;52.382;5.270;2022-09-20T18:31:38;2.00;;;1.00;;
55655;SDS011;41530;52.382;5.270;2022-09-20T18:34:09;2.22;;;0.88;;
55655;SDS011;41530;52.382;5.270;2022-09-20T18:36:38;2.15;;;1.00;;
55655;SDS011;41530;52.382;5.270;2022-09-20T18:39:05;2.67;;;1.10;;
55655;SDS011;41530;52.382;5.270;2022-09-20T18:41:33;3.83;;;1.25;;
55655;SDS011;41530;52.382;5.270;2022-09-20T18:44:03;2.45;;;1.00;;
55655;SDS011;41530;52.382;5.270;2022-09-20T18:46:32;1.83;;;0.98;;
55655;SDS011;41530;52.382;5.270;2022-09-20T18:49:04;2.85;;;1.08;;
55655;SDS011;41530;52.382;5.270;2022-09-20T18:51:34;1.88;;;0.90;;
55655;SDS011;41530;52.382;5.270;2022-09-20T18:54:05;1.48;;;0.85;;
55655;SDS011;41530;52.382;5.270;2022-09-20T18:56:35;2.08;;;0.95;;
55655;SDS011;41530;52.382;5.270;2022-09-20T18:59:04;2.15;;;1.00;;
55655;SDS011;41530;52.382;5.270;2022-09-20T19:10:45;2.28;;;0.90;;
55655;SDS011;41530;52.382;5.270;2022-09-20T19:13:34;1.83;;;0.80;;
55655;SDS011;41530;52.382;5.270;2022-09-20T19:16:15;1.50;;;0.85;;
55655;SDS011;41530;52.382;5.270;2022-09-20T19:21:54;3.38;;;1.02;;
55655;SDS011;41530;52.382;5.270;2022-09-20T19:27:11;0.80;;;0.60;;
55655;SDS011;41530;52.382;5.270;2022-09-20T19:29:39;1.95;;;0.73;;
55655;SDS011;41530;52.382;5.270;2022-09-20T19:32:09;1.63;;;0.80;;
55655;SDS011;41530;52.382;5.270;2022-09-20T19:34:41;2.40;;;0.90;;
55655;SDS011;41530;52.382;5.270;2022-09-20T19:50:52;2.25;;;0.75;;
55655;SDS011;41530;52.382;5.270;2022-09-20T19:53:20;1.50;;;0.85;;
55655;SDS011;41530;52.382;5.270;2022-09-20T19:55:52;0.95;;;0.63;;
55655;SDS011;41530;52.382;5.270;2022-09-20T19:58:33;2.08;;;0.77;;
55655;SDS011;41530;52.382;5.270;2022-09-20T20:01:00;1.83;;;0.90;;
55655;SDS011;41530;52.382;5.270;2022-09-20T20:03:27;2.20;;;0.73;;
55655;SDS011;41530;52.382;5.270;2022-09-20T20:09:10;1.17;;;0.60;;
55655;SDS011;41530;52.382;5.270;2022-09-20T20:14:38;0.98;;;0.68;;
55655;SDS011;41530;52.382;5.270;2022-09-20T20:20:05;1.35;;;0.73;;
55655;SDS011;41530;52.382;5.270;2022-09-20T20:23:03;1.20;;;0.57;;
55655;SDS011;41530;52.382;5.270;2022-09-20T20:28:25;1.42;;;0.70;;
55655;SDS011;41530;52.382;5.270;2022-09-20T20:30:52;0.85;;;0.57;;
55655;SDS011;41530;52.382;5.270;2022-09-20T20:33:24;1.65;;;0.57;;
55655;SDS011;41530;52.382;5.270;2022-09-20T20:35:55;2.45;;;0.77;;
55655;SDS011;41530;52.382;5.270;2022-09-20T20:38:24;1.73;;;0.90;;
55655;SDS011;41530;52.382;5.270;2022-09-20T20:41:02;2.75;;;0.88;;
55655;SDS011;41530;52.382;5.270;2022-09-20T20:43:40;1.48;;;0.70;;
55655;SDS011;41530;52.382;5.270;2022-09-20T20:46:09;1.60;;;0.75;;
55655;SDS011;41530;52.382;5.270;2022-09-20T20:48:39;0.98;;;0.60;;
55655;SDS011;41530;52.382;5.270;2022-09-20T20:51:07;2.15;;;0.77;;
55655;SDS011;41530;52.382;5.270;2022-09-20T20:53:36;1.95;;;0.95;;
55655;SDS011;41530;52.382;5.270;2022-09-20T20:56:05;1.20;;;0.70;;
55655;SDS011;41530;52.382;5.270;2022-09-20T20:58:37;2.88;;;1.05;;
55655;SDS011;41530;52.382;5.270;2022-09-20T21:03:41;7.38;;;1.05;;
55655;SDS011;41530;52.382;5.270;2022-09-20T21:06:11;1.83;;;0.82;;
55655;SDS011;41530;52.382;5.270;2022-09-20T21:08:39;2.45;;;0.80;;
55655;SDS011;41530;52.382;5.270;2022-09-20T21:11:16;3.83;;;0.80;;
55655;SDS011;41530;52.382;5.270;2022-09-20T21:13:43;1.92;;;0.80;;
55655;SDS011;41530;52.382;5.270;2022-09-20T21:16:13;2.25;;;0.68;;
55655;SDS011;41530;52.382;5.270;2022-09-20T21:18:42;2.15;;;1.00;;
55655;SDS011;41530;52.382;5.270;2022-09-20T21:21:20;1.52;;;0.80;;
55655;SDS011;41530;52.382;5.270;2022-09-20T21:23:49;1.17;;;0.75;;
55655;SDS011;41530;52.382;5.270;2022-09-20T21:26:17;3.78;;;0.70;;
55655;SDS011;41530;52.382;5.270;2022-09-20T21:28:52;3.72;;;0.80;;
55655;SDS011;41530;52.382;5.270;2022-09-20T21:31:23;1.63;;;0.80;;
55655;SDS011;41530;52.382;5.270;2022-09-20T21:33:51;2.65;;;0.63;;
55655;SDS011;41530;52.382;5.270;2022-09-20T21:36:19;1.92;;;0.70;;
55655;SDS011;41530;52.382;5.270;2022-09-20T21:38:47;2.72;;;0.88;;
55655;SDS011;41530;52.382;5.270;2022-09-20T21:43:45;1.02;;;0.70;;
55655;SDS011;41530;52.382;5.270;2022-09-20T21:48:45;2.25;;;1.00;;